Time;durP1;ratioP1;P1;durP2;ratioP2;P2;SDS_P1;SDS_P2;PMS_P1;PMS_P2;Temp;Humidity;BMP_temperature;BMP_pressure;BME280_temperature;BME280_humidity;BME280_pressure;Samples;Min_cycle;Max_cycle;Signal;HPM_P1;HPM_P2
2023/08/01 00:02:15;;;;;;;3.83;3.03;;;;;;;23.27;62.95;96580.75;5088143;28;20219;-76
2023/08/01 00:04:42;;;;;;;3.93;3.30;;;;;;;23.26;63.20;96566.72;5087954;28;20185;-75
2023/08/01 00:07:09;;;;;;;5.03;3.73;;;;;;;23.24;63.98;96575.78;5088047;28;20187;-75
2023/08/01 00:09:36;;;;;;;4.07;3.50;;;;;;;23.30;63.82;96561.94;5053427;28;20263;-75
2023/08/01 00:12:04;;;;;;;5.90;4.10;;;;;;;23.36;63.51;96564.81;5087966;28;20205;-80
2023/08/01 00:14:32;;;;;;;5.33;3.73;;;;;;;23.39;63.33;96569.75;5088126;28;20218;-74
2023/08/01 00:16:59;;;;;;;5.00;4.10;;;;;;;23.35;62.19;96547.28;5052861;28;20205;-74
2023/08/01 00:19:27;;;;;;;4.60;3.90;;;;;;;23.27;62.53;96564.88;5069572;28;20205;-73
2023/08/01 00:21:54;;;;;;;5.10;3.90;;;;;;;23.48;62.25;96557.41;5069636;28;20227;-74
2023/08/01 00:24:23;;;;;;;4.57;3.90;;;;;;;23.42;61.91;96564.16;5069588;28;20210;-76
2023/08/01 00:26:50;;;;;;;5.13;3.63;;;;;;;23.28;63.09;96561.28;5088138;28;20214;-75
2023/08/01 00:29:17;;;;;;;4.27;3.47;;;;;;;23.36;62.56;96554.25;5087694;28;20197;-76
2023/08/01 00:31:45;;;;;;;5.37;3.70;;;;;;;23.36;62.25;96551.59;5069830;28;20580;-80
2023/08/01 00:34:12;;;;;;;5.33;3.77;;;;;;;23.42;61.67;96552.75;5069734;28;20200;-78
2023/08/01 00:36:39;;;;;;;6.13;4.00;;;;;;;23.34;62.10;96558.03;5069511;28;20192;-79
2023/08/01 00:39:10;;;;;;;4.60;3.90;;;;;;;23.34;61.89;96548.28;5087664;28;20617;-78
2023/08/01 00:41:37;;;;;;;5.10;4.37;;;;;;;23.36;61.84;96545.47;5069221;28;20270;-78
2023/08/01 00:44:05;;;;;;;4.67;4.03;;;;;;;23.33;62.10;96537.84;5069937;28;20197;-80
2023/08/01 00:46:32;;;;;;;6.50;4.10;;;;;;;23.31;62.47;96553.84;5087303;28;20692;-79
2023/08/01 00:49:00;;;;;;;4.40;3.73;;;;;;;23.02;63.21;96544.66;5069416;28;20296;-76
2023/08/01 00:51:29;;;;;;;4.90;3.87;;;;;;;22.99;63.27;96539.69;5069375;28;20567;-80
2023/08/01 00:53:57;;;;;;;4.93;3.87;;;;;;;23.01;63.59;96537.72;5052763;28;20698;-80
2023/08/01 00:56:24;;;;;;;4.57;3.90;;;;;;;22.96;64.00;96551.38;5087635;28;20198;-81
2023/08/01 00:58:51;;;;;;;5.03;4.07;;;;;;;23.12;62.68;96545.38;5087289;28;20275;-80
2023/08/01 01:01:19;;;;;;;4.40;3.83;;;;;;;23.04;62.67;96542.69;5069412;28;20225;-81
2023/08/01 01:03:48;;;;;;;4.00;3.60;;;;;;;23.12;62.06;96534.81;5087577;28;20220;-81
2023/08/01 01:06:30;;;;;;;4.83;3.67;;;;;;;23.16;61.78;96536.13;5087501;28;20190;-78
2023/08/01 01:08:57;;;;;;;5.00;3.10;;;;;;;23.10;61.95;96527.00;5092757;28;20278;-80
2023/08/01 01:11:25;;;;;;;5.10;4.17;;;;;;;23.25;60.67;96535.16;5106113;28;20192;-77
2023/08/01 01:13:53;;;;;;;4.63;3.10;;;;;;;23.15;61.38;96530.00;5070904;28;20241;-80
2023/08/01 01:16:21;;;;;;;4.33;3.03;;;;;;;23.13;61.33;96541.72;5068467;28;20228;-79
2023/08/01 01:18:48;;;;;;;3.97;3.33;;;;;;;22.93;62.04;96529.75;5087737;28;20196;-80
2023/08/01 01:21:16;;;;;;;4.50;3.43;;;;;;;22.96;61.67;96532.06;5068537;28;20617;-76
2023/08/01 01:23:52;;;;;;;5.70;3.40;;;;;;;22.98;61.22;96528.28;5086956;28;20750;-82
2023/08/01 01:26:21;;;;;;;3.90;3.50;;;;;;;22.97;61.35;96541.66;5068922;28;20200;-78
2023/08/01 01:28:51;;;;;;;4.00;3.60;;;;;;;22.92;62.20;96538.66;5086854;28;20662;-76
2023/08/01 01:31:19;;;;;;;3.60;3.30;;;;;;;22.67;62.48;96516.59;5069133;28;20194;-82
2023/08/01 01:33:47;;;;;;;4.37;3.23;;;;;;;22.97;61.89;96542.50;5068944;28;20192;-81
2023/08/01 01:36:14;;;;;;;5.33;3.37;;;;;;;22.85;61.35;96496.22;5086926;28;20278;-80
2023/08/01 01:38:42;;;;;;;6.13;4.37;;;;;;;22.84;62.77;96520.13;5068878;28;20205;-78
2023/08/01 01:41:09;;;;;;;5.00;4.40;;;;;;;22.79;63.11;96519.78;5086732;28;20694;-81
2023/08/01 01:43:37;;;;;;;5.50;4.30;;;;;;;22.62;64.11;96518.88;5068521;28;20198;-83
2023/08/01 01:46:06;;;;;;;6.30;4.73;;;;;;;22.56;64.34;96511.56;5086778;28;20220;-78
2023/08/01 01:48:34;;;;;;;5.50;4.47;;;;;;;22.36;64.72;96518.84;5087080;28;20671;-80
2023/08/01 01:51:01;;;;;;;5.53;4.50;;;;;;;22.10;65.61;96501.34;5051942;28;20196;-82
2023/08/01 01:53:28;;;;;;;4.93;4.43;;;;;;;22.28;65.43;96510.88;5087017;28;20184;-81
2023/08/01 01:55:55;;;;;;;5.13;4.17;;;;;;;22.24;65.61;96520.09;5086555;28;20248;-79
2023/08/01 01:58:22;;;;;;;5.33;4.10;;;;;;;22.24;65.76;96522.72;5051677;28;20834;-78
2023/08/01 02:00:50;;;;;;;5.70;4.43;;;;;;;22.41;64.83;96519.22;5068252;28;20198;-81
2023/08/01 02:03:17;;;;;;;5.00;4.50;;;;;;;22.31;64.90;96501.84;5067897;28;20207;-81
2023/08/01 02:05:45;;;;;;;6.17;4.87;;;;;;;22.20;65.65;96531.94;5086579;28;20282;-82
2023/08/01 02:08:12;;;;;;;6.10;5.20;;;;;;;22.20;65.66;96531.94;5068134;28;20267;-79
2023/08/01 02:10:39;;;;;;;7.80;5.07;;;;;;;21.69;66.34;96503.63;5051770;28;20230;-80
2023/08/01 02:13:08;;;;;;;7.73;5.97;;;;;;;21.54;67.87;96528.84;5051689;28;20621;-81
2023/08/01 02:15:36;;;;;;;6.40;5.63;;;;;;;21.34;68.92;96516.78;5051125;28;20211;-77
2023/08/01 02:18:04;;;;;;;6.10;4.30;;;;;;;21.85;67.34;96542.50;5051501;28;20196;-81
2023/08/01 02:20:31;;;;;;;4.50;4.10;;;;;;;21.68;67.91;96493.22;5086284;28;20273;-80
2023/08/01 02:22:58;;;;;;;4.80;4.30;;;;;;;21.67;69.17;96529.31;5068483;28;20221;-82
2023/08/01 02:25:26;;;;;;;4.60;4.20;;;;;;;21.64;70.33;96537.50;5068209;28;20693;-83
2023/08/01 02:27:53;;;;;;;5.00;4.50;;;;;;;21.52;70.64;96529.97;5069340;28;20551;-81
2023/08/01 02:30:20;;;;;;;5.57;4.63;;;;;;;21.13;72.36;96533.81;5071914;28;20189;-81
2023/08/01 02:32:48;;;;;;;7.67;4.90;;;;;;;20.77;73.64;96531.06;5090108;28;20696;-82
2023/08/01 02:35:15;;;;;;;6.80;4.97;;;;;;;20.66;74.35;96539.16;5055611;28;20217;-76
2023/08/01 02:37:43;;;;;;;5.90;4.90;;;;;;;20.30;75.50;96533.84;5072049;28;20207;-77
2023/08/01 02:40:10;;;;;;;6.53;4.97;;;;;;;19.81;77.19;96517.28;5090321;28;20194;-77
2023/08/01 02:42:38;;;;;;;7.77;4.60;;;;;;;20.14;76.20;96514.19;5089907;28;20263;-77
2023/08/01 02:45:05;;;;;;;7.27;4.77;;;;;;;20.39;75.19;96520.66;5072061;28;20188;-82
2023/08/01 02:47:32;;;;;;;6.53;4.87;;;;;;;20.59;74.47;96542.47;5071843;28;20287;-79
2023/08/01 02:50:00;;;;;;;6.00;4.73;;;;;;;20.56;74.56;96535.72;5071584;28;20204;-77
2023/08/01 02:52:30;;;;;;;8.10;5.50;;;;;;;20.71;73.74;96529.00;5089801;28;20200;-75
2023/08/01 02:54:57;;;;;;;5.93;4.80;;;;;;;20.79;73.61;96533.56;5089635;28;20576;-78
2023/08/01 02:57:24;;;;;;;5.33;4.60;;;;;;;21.06;72.66;96533.59;5071432;28;20204;-74
2023/08/01 02:59:51;;;;;;;5.00;4.13;;;;;;;21.32;71.42;96541.63;5089503;28;20258;-75
2023/08/01 03:02:19;;;;;;;4.63;4.20;;;;;;;21.17;71.23;96548.34;5089730;28;20230;-76
2023/08/01 03:04:47;;;;;;;6.63;4.43;;;;;;;20.90;72.11;96534.19;5089436;28;20606;-75
2023/08/01 03:07:14;;;;;;;4.87;4.13;;;;;;;20.95;72.51;96537.22;5071280;28;20189;-75
2023/08/01 03:09:42;;;;;;;8.23;5.40;;;;;;;20.78;72.77;96540.63;5089199;28;20636;-74
2023/08/01 03:12:10;;;;;;;10.63;6.87;;;;;;;20.61;73.60;96545.81;5071261;28;20279;-74
2023/08/01 03:14:37;;;;;;;5.03;4.40;;;;;;;20.67;73.01;96529.47;5071172;28;20185;-75
2023/08/01 03:17:05;;;;;;;6.87;4.60;;;;;;;20.87;72.05;96531.88;5086903;28;20197;-76
2023/08/01 03:19:32;;;;;;;6.20;4.43;;;;;;;20.98;71.59;96536.91;5071427;28;20599;-77
2023/08/01 03:22:00;;;;;;;7.10;4.93;;;;;;;20.70;72.38;96529.16;5070939;28;20269;-74
2023/08/01 03:24:27;;;;;;;5.47;4.73;;;;;;;20.85;71.47;96536.44;5089251;28;20224;-76
2023/08/01 03:26:54;;;;;;;6.70;5.13;;;;;;;20.85;71.76;96549.59;5088872;28;20557;-76
2023/08/01 03:29:22;;;;;;;7.63;5.27;;;;;;;20.75;71.90;96548.78;5088824;28;20193;-75
2023/08/01 03:31:49;;;;;;;6.40;4.50;;;;;;;20.87;71.09;96545.03;5088952;28;20201;-75
2023/08/01 03:34:16;;;;;;;6.53;4.60;;;;;;;20.99;71.07;96557.03;5070616;28;20213;-75
2023/08/01 03:36:43;;;;;;;6.27;5.30;;;;;;;21.19;70.79;96570.09;5070492;28;20300;-75
2023/08/01 03:39:11;;;;;;;5.10;4.60;;;;;;;21.46;70.09;96568.31;5069858;28;20221;-76
2023/08/01 03:41:38;;;;;;;6.00;5.10;;;;;;;21.72;69.27;96565.78;5050398;28;20225;-76
2023/08/01 03:44:06;;;;;;;7.43;4.73;;;;;;;22.00;68.67;96577.09;5050179;28;20735;-75
2023/08/01 03:46:33;;;;;;;6.17;5.10;;;;;;;22.32;68.23;96583.47;5068136;28;20215;-74
2023/08/01 03:49:00;;;;;;;5.73;4.90;;;;;;;22.74;67.12;96582.78;5067357;28;20288;-75
2023/08/01 03:51:27;;;;;;;6.83;4.80;;;;;;;23.03;65.95;96588.56;5069615;28;20582;-76
2023/08/01 03:53:55;;;;;;;9.83;5.83;;;;;;;23.11;64.77;96570.94;5087977;28;20204;-80
2023/08/01 03:56:42;;;;;;;6.67;5.10;;;;;;;23.41;65.12;96593.41;5087373;28;20677;-81
2023/08/01 03:59:14;;;;;;;7.30;4.50;;;;;;;23.72;64.18;96589.19;5087700;28;20188;-74
2023/08/01 04:01:41;;;;;;;7.20;5.40;;;;;;;23.76;62.81;96603.72;5085229;28;20225;-73
2023/08/01 04:04:10;;;;;;;6.33;4.60;;;;;;;23.25;63.58;96590.66;5087963;28;20198;-79
2023/08/01 04:06:38;;;;;;;5.57;4.23;;;;;;;23.50;63.93;96603.00;5070241;28;20225;-79
2023/08/01 04:09:06;;;;;;;6.50;4.10;;;;;;;23.68;62.74;96584.41;5087654;28;20262;-77
2023/08/01 04:11:33;;;;;;;7.53;5.03;;;;;;;23.98;62.17;96591.72;5084263;28;20640;-76
2023/08/01 04:14:01;;;;;;;4.93;4.43;;;;;;;23.50;62.54;96586.31;5053831;28;20204;-77
2023/08/01 04:16:28;;;;;;;4.73;4.30;;;;;;;22.94;64.74;96589.50;5067601;28;20205;-79
2023/08/01 04:18:56;;;;;;;5.07;4.00;;;;;;;22.95;64.65;96599.94;5049781;28;20195;-76
2023/08/01 04:21:25;;;;;;;6.77;4.63;;;;;;;22.93;65.02;96601.91;5055110;28;20206;-75
2023/08/01 04:23:53;;;;;;;5.00;4.50;;;;;;;22.36;67.09;96600.66;5087863;28;20227;-79
2023/08/01 04:26:20;;;;;;;5.73;4.70;;;;;;;22.90;65.69;96596.09;5069377;28;20592;-75
2023/08/01 04:28:47;;;;;;;4.80;4.30;;;;;;;22.99;63.85;96592.50;5088113;28;20189;-75
2023/08/01 04:31:15;;;;;;;5.17;4.10;;;;;;;23.17;64.54;96596.75;5087748;28;20181;-76
2023/08/01 04:33:43;;;;;;;5.33;4.30;;;;;;;23.72;62.66;96596.31;5036018;28;20220;-76
2023/08/01 04:36:10;;;;;;;8.17;4.30;;;;;;;23.36;62.55;96607.09;5087210;28;20278;-81
2023/08/01 04:38:38;;;;;;;7.40;3.53;;;;;;;22.98;62.92;96604.88;5069502;28;20684;-79
2023/08/01 04:41:05;;;;;;;4.60;3.90;;;;;;;22.83;62.73;96585.34;5068925;28;20275;-75
2023/08/01 04:43:33;;;;;;;4.73;4.23;;;;;;;23.34;62.08;96600.31;5068781;28;20320;-81
2023/08/01 04:46:00;;;;;;;4.43;3.40;;;;;;;24.19;60.39;96608.78;5068964;28;20202;-81
2023/08/01 04:48:27;;;;;;;6.20;3.87;;;;;;;24.77;58.02;96589.28;5086948;28;20740;-81
2023/08/01 04:50:54;;;;;;;5.60;4.20;;;;;;;25.29;56.19;96600.22;5068519;28;20264;-79
2023/08/01 04:53:22;;;;;;;6.50;4.00;;;;;;;25.60;55.51;96609.06;5087061;28;20187;-80
2023/08/01 04:55:49;;;;;;;4.83;3.80;;;;;;;25.95;54.10;96619.16;5069089;28;20257;-75
2023/08/01 04:58:16;;;;;;;5.07;4.57;;;;;;;25.92;54.01;96602.78;5087239;28;20271;-78
2023/08/01 05:00:43;;;;;;;9.03;4.93;;;;;;;26.16;52.45;96626.53;5068865;28;20234;-76
2023/08/01 05:03:11;;;;;;;5.17;4.10;;;;;;;26.21;52.54;96616.22;5069237;28;20232;-74
2023/08/01 05:05:40;;;;;;;6.10;3.40;;;;;;;26.02;53.20;96619.28;5086495;28;20887;-75
2023/08/01 05:08:08;;;;;;;4.77;3.70;;;;;;;26.14;53.13;96628.53;5068701;28;20294;-74
2023/08/01 05:10:35;;;;;;;3.80;3.30;;;;;;;25.36;54.36;96617.09;5087190;28;20277;-75
2023/08/01 05:13:02;;;;;;;4.07;3.60;;;;;;;25.27;54.56;96616.31;5091811;28;20189;-77
2023/08/01 05:15:30;;;;;;;4.53;3.83;;;;;;;24.95;55.01;96606.63;5073099;28;20235;-79
2023/08/01 05:17:58;;;;;;;5.90;3.77;;;;;;;24.70;55.17;96612.94;5072611;28;20234;-76
2023/08/01 05:20:30;;;;;;;4.50;3.63;;;;;;;24.77;55.69;96626.38;5074571;28;20191;-75
2023/08/01 05:22:59;;;;;;;7.97;4.20;;;;;;;24.76;56.45;96632.66;5088223;28;20216;-77
2023/08/01 05:25:26;;;;;;;6.67;4.77;;;;;;;24.44;57.26;96624.72;5070128;28;20192;-77
2023/08/01 05:27:55;;;;;;;11.70;6.03;;;;;;;25.18;56.29;96633.25;5071535;28;20706;-83
2023/08/01 05:30:22;;;;;;;6.73;5.80;;;;;;;25.27;55.57;96628.72;5086937;28;20184;-78
2023/08/01 05:32:49;;;;;;;6.13;4.47;;;;;;;25.73;55.53;96631.41;5052086;28;20277;-75
2023/08/01 05:35:17;;;;;;;6.33;4.90;;;;;;;25.33;53.50;96623.56;5070079;28;20279;-77
2023/08/01 05:37:45;;;;;;;4.43;3.50;;;;;;;25.42;54.02;96635.84;5086656;28;20187;-78
2023/08/01 05:40:13;;;;;;;7.97;3.60;;;;;;;25.83;53.23;96636.47;5067994;28;20223;-83
2023/08/01 05:42:40;;;;;;;4.37;3.73;;;;;;;25.83;53.04;96615.25;5067791;28;20274;-82
2023/08/01 05:45:13;;;;;;;4.80;3.73;;;;;;;25.94;51.71;96619.34;5087000;28;20198;-77
2023/08/01 05:47:40;;;;;;;5.03;3.40;;;;;;;26.38;50.82;96625.69;5068471;28;20569;-78
2023/08/01 05:50:12;;;;;;;4.10;3.57;;;;;;;26.27;51.08;96596.91;5089790;28;20189;-82
2023/08/01 05:52:40;;;;;;;5.77;3.60;;;;;;;26.51;49.79;96610.81;5052345;28;20192;-78
2023/08/01 05:55:08;;;;;;;3.77;2.83;;;;;;;26.82;47.54;96629.34;5086206;28;20655;-75
2023/08/01 05:57:35;;;;;;;3.37;2.90;;;;;;;26.90;47.83;96615.13;5086665;28;20185;-81
2023/08/01 06:00:02;;;;;;;4.70;3.63;;;;;;;27.04;47.71;96623.13;5068093;28;20234;-76
2023/08/01 06:02:52;;;;;;;6.17;3.27;;;;;;;27.02;49.13;96619.00;5070137;28;20762;-76
2023/08/01 06:05:30;;;;;;;5.07;3.60;;;;;;;27.42;48.59;96625.75;5071551;28;20676;-75
2023/08/01 06:07:57;;;;;;;6.97;4.03;;;;;;;27.30;48.45;96625.34;5090238;28;20234;-76
2023/08/01 06:10:25;;;;;;;8.80;8.00;;;;;;;27.52;47.15;96615.66;5071732;28;20259;-81
2023/08/01 06:12:52;;;;;;;4.30;3.57;;;;;;;27.51;47.00;96608.69;5090226;28;20301;-76
2023/08/01 06:15:21;;;;;;;4.10;3.70;;;;;;;27.60;47.30;96610.22;5071670;28;20193;-82
2023/08/01 06:17:48;;;;;;;6.80;3.60;;;;;;;27.71;46.49;96615.91;5089778;28;20188;-76
2023/08/01 06:20:15;;;;;;;4.90;3.53;;;;;;;28.02;45.77;96618.34;5089857;28;20220;-77
2023/08/01 06:22:43;;;;;;;7.10;4.20;;;;;;;27.77;46.30;96614.31;5071669;28;20216;-78
2023/08/01 06:25:10;;;;;;;4.93;3.50;;;;;;;27.32;46.19;96589.59;5089682;28;20180;-78
2023/08/01 06:27:38;;;;;;;4.17;3.77;;;;;;;27.07;46.64;96574.09;5090654;28;20195;-78
2023/08/01 06:30:06;;;;;;;3.30;3.00;;;;;;;27.22;47.50;96610.31;5071430;28;20193;-75
2023/08/01 06:32:33;;;;;;;5.70;3.67;;;;;;;27.13;46.64;96595.47;5071240;28;20212;-78
2023/08/01 06:35:00;;;;;;;5.20;3.10;;;;;;;27.38;46.16;96598.69;5089606;28;20549;-78
2023/08/01 06:37:27;;;;;;;3.40;3.10;;;;;;;27.41;44.90;96619.59;5089502;28;20201;-75
2023/08/01 06:39:55;;;;;;;4.57;3.20;;;;;;;27.41;46.12;96594.84;5090384;28;20643;-83
2023/08/01 06:42:23;;;;;;;4.23;2.93;;;;;;;27.79;44.20;96594.50;5089488;28;20299;-76
2023/08/01 06:44:51;;;;;;;5.67;2.93;;;;;;;27.75;44.97;96605.69;5071320;28;20193;-76
2023/08/01 06:47:18;;;;;;;2.67;2.47;;;;;;;27.96;44.17;96600.47;5089434;28;20189;-80
2023/08/01 06:49:46;;;;;;;6.43;3.10;;;;;;;27.97;43.34;96599.44;5071363;28;20237;-77
2023/08/01 06:52:13;;;;;;;6.40;2.70;;;;;;;27.88;43.06;96600.53;5089424;28;20181;-80
2023/08/01 06:54:40;;;;;;;3.47;3.03;;;;;;;28.15;43.67;96592.66;5070469;28;20184;-76
2023/08/01 06:57:08;;;;;;;5.07;3.10;;;;;;;28.25;44.08;96603.00;5088780;28;20188;-80
2023/08/01 06:59:35;;;;;;;4.10;3.03;;;;;;;28.26;44.56;96590.50;5088811;28;20192;-75
2023/08/01 07:02:03;;;;;;;6.37;3.37;;;;;;;28.04;43.91;96589.69;5070408;28;20707;-77
2023/08/01 07:04:30;;;;;;;4.23;3.40;;;;;;;28.43;42.90;96614.03;5054243;28;20311;-78
2023/08/01 07:06:57;;;;;;;4.13;3.23;;;;;;;28.37;42.70;96612.16;5054308;28;20189;-83
2023/08/01 07:09:24;;;;;;;3.20;2.70;;;;;;;28.09;43.09;96597.91;5088836;28;20208;-82
2023/08/01 07:11:51;;;;;;;4.10;3.33;;;;;;;28.19;43.52;96595.78;5070470;28;20200;-79
2023/08/01 07:14:19;;;;;;;5.70;3.20;;;;;;;28.37;43.40;96605.97;5070486;28;20990;-78
2023/08/01 07:16:46;;;;;;;5.17;3.23;;;;;;;28.53;42.72;96601.22;5088364;28;20274;-77
2023/08/01 07:19:13;;;;;;;3.20;2.90;;;;;;;28.67;42.12;96610.16;5070630;28;20191;-80
2023/08/01 07:21:41;;;;;;;4.70;3.40;;;;;;;28.15;43.68;96605.97;5090142;28;20203;-85
2023/08/01 07:24:08;;;;;;;3.77;2.77;;;;;;;27.87;43.83;96602.38;5089557;28;20447;-84
2023/08/01 07:26:35;;;;;;;3.80;2.67;;;;;;;27.60;44.65;96602.22;5091101;28;20280;-85
2023/08/01 07:29:04;;;;;;;3.70;2.90;;;;;;;27.74;43.90;96590.75;5072511;28;20185;-77
2023/08/01 07:31:32;;;;;;;3.30;2.73;;;;;;;27.79;44.05;96596.34;5092737;28;20668;-77
2023/08/01 07:33:59;;;;;;;6.00;4.03;;;;;;;27.67;44.42;96560.56;5073071;28;20702;-83
2023/08/01 07:36:27;;;;;;;7.70;4.90;;;;;;;27.80;43.60;96572.19;5087857;28;20196;-80
2023/08/01 07:38:56;;;;;;;3.10;2.80;;;;;;;28.14;43.46;96600.84;5070031;28;20220;-79
2023/08/01 07:41:23;;;;;;;6.87;5.73;;;;;;;28.54;41.78;96586.84;5072638;28;20224;-78
2023/08/01 07:43:51;;;;;;;4.23;3.43;;;;;;;28.75;41.90;96586.88;5096023;28;21205;-80
2023/08/01 07:46:18;;;;;;;4.13;2.50;;;;;;;29.03;40.58;96602.88;5093974;28;20254;-84
2023/08/01 07:48:45;;;;;;;3.87;2.70;;;;;;;29.02;40.63;96595.06;5074621;28;20201;-76
2023/08/01 07:51:13;;;;;;;6.77;3.07;;;;;;;28.99;40.32;96598.94;5074676;28;20177;-77
2023/08/01 07:53:41;;;;;;;5.40;3.40;;;;;;;29.15;40.12;96600.50;5092011;28;20283;-77
2023/08/01 07:56:09;;;;;;;4.70;4.17;;;;;;;29.22;40.24;96580.03;5056868;28;20193;-78
2023/08/01 07:58:38;;;;;;;9.67;4.30;;;;;;;29.44;39.83;96589.59;5072499;28;20196;-77
2023/08/01 08:01:06;;;;;;;7.60;2.80;;;;;;;29.38;40.65;96601.06;5075523;28;20196;-79
2023/08/01 08:03:33;;;;;;;4.17;2.80;;;;;;;29.25;40.17;96579.63;5076236;28;20234;-84
2023/08/01 08:06:03;;;;;;;3.20;2.90;;;;;;;28.75;39.55;96565.53;5076916;28;20200;-80
2023/08/01 08:08:31;;;;;;;3.57;2.77;;;;;;;28.80;39.91;96581.78;5076440;28;20855;-81
2023/08/01 08:11:01;;;;;;;3.03;2.73;;;;;;;28.71;40.47;96569.59;5091974;28;20189;-78
2023/08/01 08:13:30;;;;;;;4.83;3.13;;;;;;;28.84;39.86;96575.03;5091013;28;20206;-81
2023/08/01 08:15:58;;;;;;;4.50;3.00;;;;;;;28.89;39.62;96577.13;5088154;28;20290;-83
2023/08/01 08:18:26;;;;;;;2.97;2.60;;;;;;;28.73;40.24;96580.91;5070320;28;20536;-82
2023/08/01 08:20:54;;;;;;;5.70;3.70;;;;;;;29.05;40.28;96571.50;5090358;28;20573;-84
2023/08/01 08:23:21;;;;;;;3.77;2.67;;;;;;;28.71;40.23;96561.63;5054135;28;20247;-80
2023/08/01 08:25:49;;;;;;;7.33;2.80;;;;;;;28.55;40.58;96564.53;5053379;28;20718;-77
2023/08/01 08:28:30;;;;;;;4.07;3.40;;;;;;;28.68;39.93;96571.84;5088959;28;20193;-81
2023/08/01 08:30:59;;;;;;;5.57;3.10;;;;;;;28.51;39.64;96565.94;5070554;28;20664;-81
2023/08/01 08:33:27;;;;;;;5.03;2.53;;;;;;;28.31;40.62;96553.47;5089321;28;20217;-78
2023/08/01 08:35:56;;;;;;;2.80;2.27;;;;;;;28.03;40.50;96553.41;5091727;28;20202;-85
2023/08/01 08:38:23;;;;;;;3.27;2.83;;;;;;;28.28;41.22;96568.00;5073501;28;20245;-82
2023/08/01 08:41:00;;;;;;;3.27;2.70;;;;;;;28.67;39.88;96559.53;5072086;28;20189;-86
2023/08/01 08:43:29;;;;;;;5.47;3.53;;;;;;;28.66;39.81;96553.41;5071977;28;20220;-84
2023/08/01 08:45:57;;;;;;;5.37;3.37;;;;;;;28.55;40.02;96550.38;5039502;28;20192;-83
2023/08/01 08:48:26;;;;;;;4.13;2.27;;;;;;;28.70;38.46;96527.16;5089318;28;20180;-81
2023/08/01 08:50:57;;;;;;;3.70;3.10;;;;;;;29.02;38.44;96550.53;5087126;28;20257;-85
2023/08/01 08:53:26;;;;;;;4.57;3.00;;;;;;;29.19;37.63;96551.06;5090097;28;20199;-80
2023/08/01 08:55:53;;;;;;;3.53;2.97;;;;;;;29.19;37.24;96521.72;5069715;28;20208;-80
2023/08/01 08:58:22;;;;;;;3.53;2.97;;;;;;;28.81;36.90;96513.31;5088412;28;20187;-87
2023/08/01 09:00:49;;;;;;;3.40;3.10;;;;;;;29.19;37.16;96543.06;5104085;28;20232;-80
2023/08/01 09:03:16;;;;;;;4.07;2.70;;;;;;;29.32;36.77;96540.47;5105897;28;20232;-81
2023/08/01 09:05:48;;;;;;;4.00;2.70;;;;;;;29.58;36.95;96548.56;5099180;28;20720;-82
2023/08/01 09:08:19;;;;;;;4.03;2.60;;;;;;;29.97;36.30;96538.03;5094831;28;20192;-86
2023/08/01 09:10:47;;;;;;;5.03;3.30;;;;;;;29.87;35.12;96547.47;5091579;28;20287;-87
2023/08/01 09:13:14;;;;;;;4.87;3.00;;;;;;;29.78;36.16;96530.78;5067366;28;20200;-85
2023/08/01 09:15:43;;;;;;;4.50;3.50;;;;;;;29.96;36.14;96533.75;5088363;28;20195;-83
2023/08/01 09:18:11;;;;;;;4.93;3.70;;;;;;;29.57;35.93;96541.59;5052981;28;20281;-84
2023/08/01 09:20:46;;;;;;;4.67;3.90;;;;;;;29.45;36.45;96529.88;5086729;28;20264;-83
2023/08/01 09:23:14;;;;;;;7.87;3.67;;;;;;;28.85;37.83;96525.22;5068802;28;20618;-85
2023/08/01 09:26:22;;;;;;;6.83;4.60;;;;;;;29.09;38.01;96521.25;5086124;28;20245;-84
2023/08/01 09:29:43;;;;;;;5.23;3.57;;;;;;;28.79;37.94;96526.00;5067559;28;20275;-84
2023/08/01 09:33:13;;;;;;;4.30;2.67;;;;;;;28.99;37.56;96521.59;5086418;28;20192;-88
2023/08/01 09:36:34;;;;;;;4.43;3.47;;;;;;;29.06;37.07;96516.31;5089145;28;20194;-82
2023/08/01 09:39:57;;;;;;;3.87;3.33;;;;;;;29.33;37.69;96512.75;5085136;28;20219;-85
2023/08/01 09:43:21;;;;;;;4.57;3.47;;;;;;;29.69;37.95;96510.63;5085269;28;20216;-85
2023/08/01 09:46:43;;;;;;;3.60;3.30;;;;;;;29.93;36.86;96512.75;5085456;28;20457;-83
2023/08/01 09:50:11;;;;;;;7.40;3.23;;;;;;;29.88;38.16;96485.88;5087919;28;20184;-86
2023/08/01 09:53:31;;;;;;;3.40;3.10;;;;;;;30.25;37.15;96495.94;5086177;28;20590;-87
2023/08/01 09:56:52;;;;;;;3.27;2.97;;;;;;;30.35;35.96;96503.59;5085786;28;20188;-87
2023/08/01 10:00:13;;;;;;;3.07;2.83;;;;;;;30.37;36.15;96501.53;5085699;28;20189;-83
2023/08/01 10:03:34;;;;;;;3.07;2.77;;;;;;;30.12;36.50;96493.28;5085207;28;20188;-83
2023/08/01 10:06:55;;;;;;;3.27;2.97;;;;;;;30.41;37.00;96492.91;5085838;28;20188;-84
2023/08/01 10:10:15;;;;;;;3.80;3.17;;;;;;;30.42;35.74;96441.06;5084699;28;20704;-79
2023/08/01 10:13:36;;;;;;;4.53;2.90;;;;;;;30.84;36.11;96489.75;5049982;28;20201;-85
2023/08/01 10:16:57;;;;;;;6.97;3.43;;;;;;;29.78;37.65;96472.06;5069503;28;20253;-85
2023/08/01 10:20:18;;;;;;;5.17;3.07;;;;;;;29.69;38.11;96484.75;5086010;28;20275;-83
2023/08/01 10:23:38;;;;;;;5.50;3.20;;;;;;;30.19;37.47;96469.25;5066780;28;20200;-85
2023/08/01 10:26:59;;;;;;;5.77;3.30;;;;;;;30.71;36.63;96481.75;5084790;28;20185;-77
2023/08/01 10:30:20;;;;;;;4.60;3.17;;;;;;;30.69;36.46;96470.41;5084532;28;20196;-79
2023/08/01 10:33:41;;;;;;;3.37;3.07;;;;;;;30.77;36.97;96468.34;5085320;28;20192;-76
2023/08/01 10:37:01;;;;;;;2.80;2.60;;;;;;;30.20;36.90;96465.53;5085019;28;20229;-75
2023/08/01 10:40:22;;;;;;;4.53;2.97;;;;;;;29.61;38.15;96444.88;5068878;28;20184;-76
2023/08/01 10:43:43;;;;;;;3.20;2.90;;;;;;;29.75;37.66;96453.78;5084110;28;20279;-75
2023/08/01 10:46:49;;;;;;;3.03;2.63;;;;;;;30.07;37.42;96447.63;5068676;28;20224;-76
2023/08/01 10:50:13;;;;;;;3.43;3.13;;;;;;;30.71;36.23;96449.69;5086758;28;20543;-79
2023/08/01 10:53:34;;;;;;;4.30;2.97;;;;;;;31.12;36.54;96442.97;5069970;28;20200;-76
2023/08/01 10:56:55;;;;;;;5.13;3.40;;;;;;;31.32;36.87;96427.63;5069843;28;20189;-75
2023/08/01 11:00:15;;;;;;;7.20;3.07;;;;;;;31.51;35.94;96430.47;5088074;28;20216;-76
2023/08/01 11:03:36;;;;;;;3.43;2.90;;;;;;;31.00;36.55;96438.47;5088378;28;20585;-76
2023/08/01 11:06:57;;;;;;;3.40;3.10;;;;;;;30.12;38.40;96386.41;5071872;28;20238;-76
2023/08/01 11:10:23;;;;;;;4.17;3.20;;;;;;;29.94;39.06;96426.28;5087401;28;20229;-77
2023/08/01 11:13:44;;;;;;;5.63;3.97;;;;;;;30.24;38.59;96413.31;5087683;28;20279;-76
2023/08/01 11:17:05;;;;;;;4.37;3.83;;;;;;;30.49;39.30;96415.16;5088110;28;20193;-78
2023/08/01 11:20:26;;;;;;;4.73;3.97;;;;;;;30.12;38.72;96415.81;5088175;28;20201;-80
2023/08/01 11:23:47;;;;;;;4.67;4.17;;;;;;;30.20;38.64;96418.25;5069502;28;20743;-78
2023/08/01 11:26:28;;;;;;;5.40;4.13;;;;;;;30.22;39.11;96418.88;5087423;28;20188;-77
2023/08/01 11:28:55;;;;;;;5.73;4.53;;;;;;;30.36;39.37;96409.00;5070849;28;20601;-76
2023/08/01 11:31:24;;;;;;;6.27;4.47;;;;;;;30.07;39.63;96388.06;5088879;28;20246;-77
2023/08/01 11:33:58;;;;;;;4.37;3.83;;;;;;;30.00;39.77;96403.28;5088297;28;20207;-77
2023/08/01 11:36:29;;;;;;;5.77;3.60;;;;;;;30.33;40.03;96396.91;5088327;28;20195;-75
2023/08/01 11:39:00;;;;;;;5.33;4.27;;;;;;;30.90;38.45;96379.25;5087856;28;20710;-75
2023/08/01 11:41:28;;;;;;;4.80;4.20;;;;;;;30.90;38.54;96371.25;5070077;28;20196;-76
2023/08/01 11:44:01;;;;;;;8.30;4.23;;;;;;;30.78;38.00;96328.28;5087745;28;20227;-77
2023/08/01 11:46:32;;;;;;;5.80;4.03;;;;;;;31.19;38.11;96386.75;5061270;28;20742;-77
2023/08/01 11:49:01;;;;;;;8.00;4.22;;;;;;;30.62;38.83;96376.06;5087580;28;20188;-76
2023/08/01 11:51:29;;;;;;;5.22;3.83;;;;;;;30.96;38.31;96384.59;5069528;28;20267;-79
2023/08/01 11:54:01;;;;;;;5.23;3.73;;;;;;;31.22;37.92;96380.97;5087951;28;20199;-76
2023/08/01 11:56:29;;;;;;;4.83;4.27;;;;;;;31.21;36.76;96368.63;5087772;28;20551;-76
2023/08/01 11:58:58;;;;;;;4.33;3.57;;;;;;;31.57;37.08;96370.69;5088130;28;20188;-75
2023/08/01 12:01:25;;;;;;;4.32;3.92;;;;;;;31.44;37.38;96360.06;5087020;28;20295;-77
2023/08/01 12:03:55;;;;;;;4.50;4.10;;;;;;;31.58;37.37;96365.09;5087914;28;20742;-75
2023/08/01 12:06:23;;;;;;;5.53;4.53;;;;;;;31.31;37.43;96358.25;5069858;28;20193;-78
2023/08/01 12:08:52;;;;;;;6.68;4.63;;;;;;;31.66;37.47;96361.34;5087603;28;20302;-76
2023/08/01 12:11:29;;;;;;;4.82;4.32;;;;;;;31.58;38.32;96350.91;5069326;28;20257;-76